createdAt,value
2017-09-09T00:02:04.959Z,16.18
2017-09-09T00:04:34.019Z,16.16
2017-09-09T00:07:03.079Z,16.13
2017-09-09T00:09:32.894Z,16.17
2017-09-09T00:12:01.966Z,16.15
2017-09-09T00:14:31.034Z,16.15
2017-09-09T00:17:01.727Z,16.16
2017-09-09T00:19:30.804Z,16.14
2017-09-09T00:22:00.648Z,16.13
2017-09-09T00:24:29.735Z,16.16
2017-09-09T00:26:58.760Z,16.16
2017-09-09T00:29:27.804Z,16.15
2017-09-09T00:31:57.725Z,16.11
2017-09-09T00:34:27.541Z,16.12
2017-09-09T00:36:56.612Z,16.08
2017-09-09T00:39:25.671Z,16.08
2017-09-09T00:41:54.785Z,16.06
2017-09-09T00:44:23.827Z,16.07
2017-09-09T00:46:52.890Z,16.05
2017-09-09T00:49:21.915Z,16.08
2017-09-09T00:51:51.477Z,16.09
2017-09-09T00:54:21.433Z,16.07
2017-09-09T00:56:50.478Z,16.04
2017-09-09T00:59:19.531Z,16.05
2017-09-09T01:01:48.603Z,16.06
2017-09-09T01:04:17.635Z,16.07
2017-09-09T01:06:46.718Z,16.07
2017-09-09T01:09:16.536Z,16.08
2017-09-09T01:11:46.384Z,16.10
2017-09-09T01:14:15.407Z,16.13
2017-09-09T01:16:45.245Z,16.14
2017-09-09T01:19:14.336Z,16.13
2017-09-09T01:21:44.505Z,16.16
2017-09-09T01:24:13.620Z,16.17
2017-09-09T01:26:42.687Z,16.20
2017-09-09T01:29:11.794Z,16.21
2017-09-09T01:31:40.844Z,16.19
2017-09-09T01:34:09.936Z,16.18
2017-09-09T01:36:38.952Z,16.12
2017-09-09T01:39:08.050Z,16.07
2017-09-09T01:41:37.127Z,16.08
2017-09-09T01:44:06.217Z,16.13
2017-09-09T01:46:35.271Z,16.19
2017-09-09T01:49:04.330Z,16.20
2017-09-09T01:51:33.391Z,16.22
2017-09-09T01:54:03.480Z,16.25
2017-09-09T01:56:32.520Z,16.27
2017-09-09T01:59:01.846Z,16.29
2017-09-09T02:01:30.886Z,16.31
2017-09-09T02:04:00.723Z,16.30
2017-09-09T02:06:29.771Z,16.32
2017-09-09T02:08:58.844Z,16.31
2017-09-09T02:11:27.897Z,16.34
2017-09-09T02:13:57.757Z,16.36
2017-09-09T02:16:26.791Z,16.37
2017-09-09T02:18:56.620Z,16.38
2017-09-09T02:21:26.697Z,16.39
2017-09-09T02:23:55.757Z,16.37
2017-09-09T02:26:24.810Z,16.37
2017-09-09T02:28:54.622Z,16.36
2017-09-09T02:31:24.444Z,16.35
2017-09-09T02:33:54.252Z,16.34
2017-09-09T02:36:24.110Z,16.32
2017-09-09T02:38:53.140Z,16.27
2017-09-09T02:41:22.208Z,16.27
2017-09-09T02:43:51.258Z,16.23
2017-09-09T02:46:20.315Z,16.19
2017-09-09T02:48:49.356Z,16.18
2017-09-09T02:51:18.436Z,16.13
2017-09-09T02:53:47.840Z,16.13
2017-09-09T02:56:16.868Z,16.13
2017-09-09T02:58:45.968Z,16.09
2017-09-09T03:01:15.013Z,16.04
2017-09-09T03:03:44.074Z,16.03
2017-09-09T03:06:13.366Z,16.04
2017-09-09T03:08:42.415Z,16.02
2017-09-09T03:11:12.238Z,16.01
2017-09-09T03:13:41.278Z,16.03
2017-09-09T03:16:10.637Z,16.01
2017-09-09T03:18:39.743Z,16.02
2017-09-09T03:21:09.545Z,16.00
2017-09-09T03:23:39.384Z,16.01
2017-09-09T03:26:08.456Z,15.94
2017-09-09T03:28:37.485Z,15.93
2017-09-09T03:31:06.565Z,15.90
2017-09-09T03:33:35.579Z,15.89
2017-09-09T03:36:04.679Z,15.90
2017-09-09T03:38:33.716Z,15.94
2017-09-09T03:41:03.533Z,15.95
2017-09-09T03:43:33.367Z,15.92
2017-09-09T03:46:02.465Z,15.94
2017-09-09T03:48:32.276Z,15.96
2017-09-09T03:51:01.340Z,15.95
2017-09-09T03:53:30.417Z,15.96
2017-09-09T03:55:59.439Z,15.96
2017-09-09T03:58:29.288Z,15.97
2017-09-09T04:00:58.311Z,15.95
2017-09-09T04:03:27.367Z,15.96
2017-09-09T04:05:56.443Z,15.98
2017-09-09T04:08:26.275Z,15.98
2017-09-09T04:10:55.358Z,16.00
2017-09-09T04:13:25.194Z,15.99
2017-09-09T04:15:54.258Z,16.02
2017-09-09T04:18:24.065Z,16.01
2017-09-09T04:20:53.912Z,16.05
2017-09-09T04:23:22.950Z,16.07
2017-09-09T04:25:52.798Z,16.09
2017-09-09T04:28:21.864Z,16.08
2017-09-09T04:30:51.991Z,16.06
2017-09-09T04:33:21.793Z,16.04
2017-09-09T04:35:50.844Z,16.02
2017-09-09T04:38:20.200Z,15.98
2017-09-09T04:40:49.216Z,15.86
2017-09-09T04:43:18.495Z,15.81
2017-09-09T04:45:47.548Z,15.76
2017-09-09T04:48:16.605Z,15.60
2017-09-09T04:50:45.636Z,15.53
2017-09-09T04:53:15.063Z,15.43
2017-09-09T04:55:44.141Z,15.25
2017-09-09T04:58:13.318Z,15.22
2017-09-09T05:00:42.353Z,15.09
2017-09-09T05:03:11.413Z,14.96
2017-09-09T05:05:40.779Z,14.95
2017-09-09T05:08:10.597Z,14.97
2017-09-09T05:10:40.424Z,14.71
2017-09-09T05:13:09.517Z,14.67
2017-09-09T05:15:38.597Z,14.69
2017-09-09T05:18:08.436Z,14.74
2017-09-09T05:20:37.529Z,14.75
2017-09-09T05:23:06.877Z,14.75
2017-09-09T05:25:35.940Z,14.79
2017-09-09T05:28:04.983Z,14.82
2017-09-09T05:30:34.889Z,14.88
2017-09-09T05:33:03.952Z,14.90
2017-09-09T05:35:33.001Z,14.94
2017-09-09T05:38:02.096Z,14.98
2017-09-09T05:40:31.931Z,15.02
2017-09-09T05:43:00.959Z,15.03
2017-09-09T05:45:30.017Z,15.01
2017-09-09T05:47:59.699Z,15.05
2017-09-09T05:50:29.068Z,15.10
2017-09-09T05:52:58.139Z,15.09
2017-09-09T05:55:27.183Z,15.13
2017-09-09T05:57:57.049Z,15.17
2017-09-09T06:00:27.135Z,15.20
2017-09-09T06:02:56.987Z,15.15
2017-09-09T06:05:26.061Z,15.20
2017-09-09T06:07:55.100Z,15.24
2017-09-09T06:10:25.013Z,15.26
2017-09-09T06:12:54.070Z,15.25
2017-09-09T06:15:23.403Z,15.28
2017-09-09T06:17:52.444Z,15.28
2017-09-09T06:20:21.503Z,15.29
2017-09-09T06:22:50.789Z,15.30
2017-09-09T06:25:19.828Z,15.33
2017-09-09T06:27:49.640Z,15.30
2017-09-09T06:30:19.703Z,15.26
2017-09-09T06:32:48.775Z,15.15
2017-09-09T06:35:17.901Z,15.12
2017-09-09T06:37:46.963Z,15.11
2017-09-09T06:40:16.028Z,15.12
2017-09-09T06:42:45.862Z,15.11
2017-09-09T06:45:15.678Z,15.05
2017-09-09T06:47:44.788Z,15.01
2017-09-09T06:50:13.866Z,15.02
2017-09-09T06:52:43.673Z,15.02
2017-09-09T06:55:13.517Z,15.03
2017-09-09T06:57:42.588Z,14.99
2017-09-09T07:00:13.175Z,14.97
2017-09-09T07:02:44.072Z,15.03
2017-09-09T07:05:13.129Z,15.05
2017-09-09T07:07:42.493Z,15.04
2017-09-09T07:10:11.545Z,15.02
2017-09-09T07:12:41.499Z,15.02
2017-09-09T07:15:10.949Z,15.08
2017-09-09T07:17:40.010Z,15.12
2017-09-09T07:20:09.110Z,15.16
2017-09-09T07:22:38.136Z,15.22
2017-09-09T07:25:07.989Z,15.14
2017-09-09T07:27:37.077Z,15.18
2017-09-09T07:30:07.153Z,15.19
2017-09-09T07:32:37.254Z,15.25
2017-09-09T07:35:06.609Z,15.28
2017-09-09T07:37:35.651Z,15.28
2017-09-09T07:40:04.711Z,15.35
2017-09-09T07:42:33.805Z,15.42
2017-09-09T07:45:02.868Z,15.52
2017-09-09T07:47:32.720Z,15.59
2017-09-09T07:50:01.825Z,15.64
2017-09-09T07:52:30.865Z,15.74
2017-09-09T07:55:00.679Z,15.77
2017-09-09T07:57:30.508Z,15.81
2017-09-09T07:59:59.587Z,15.75
2017-09-09T08:02:29.664Z,15.75
2017-09-09T08:04:58.735Z,15.81
2017-09-09T08:07:27.804Z,15.89
2017-09-09T08:09:57.625Z,15.93
2017-09-09T08:12:26.747Z,15.94
2017-09-09T08:14:55.776Z,15.90
2017-09-09T08:17:24.811Z,15.90
2017-09-09T08:19:54.967Z,15.94
2017-09-09T08:22:24.086Z,16.03
2017-09-09T08:24:53.188Z,16.10
2017-09-09T08:27:22.200Z,16.13
2017-09-09T08:29:52.110Z,16.16
2017-09-09T08:32:21.138Z,16.23
2017-09-09T08:34:50.312Z,16.27
2017-09-09T08:37:19.346Z,16.18
2017-09-09T08:39:48.544Z,16.11
2017-09-09T08:42:17.618Z,16.07
2017-09-09T08:44:46.679Z,16.00
2017-09-09T08:47:16.192Z,15.96
2017-09-09T08:49:45.226Z,15.90
2017-09-09T08:52:14.277Z,15.91
2017-09-09T08:54:43.364Z,15.91
2017-09-09T08:57:13.195Z,15.87
2017-09-09T08:59:43.423Z,15.85
2017-09-09T09:02:12.486Z,15.91
2017-09-09T09:04:41.557Z,16.02
2017-09-09T09:07:10.652Z,16.09
2017-09-09T09:09:39.703Z,16.21
2017-09-09T09:12:09.514Z,16.21
2017-09-09T09:14:39.349Z,16.23
2017-09-09T09:17:08.432Z,16.24
2017-09-09T09:19:38.635Z,16.25
2017-09-09T09:22:07.927Z,16.29
2017-09-09T09:24:36.976Z,16.32
2017-09-09T09:27:06.135Z,16.39
2017-09-09T09:29:36.029Z,16.48
2017-09-09T09:32:05.094Z,16.61
2017-09-09T09:34:35.174Z,16.63
2017-09-09T09:37:05.287Z,16.71
2017-09-09T09:39:35.161Z,16.72
2017-09-09T09:42:04.219Z,16.68
2017-09-09T09:44:34.034Z,16.69
2017-09-09T09:47:03.116Z,16.71
2017-09-09T09:49:32.289Z,16.66
2017-09-09T09:52:03.168Z,16.53
2017-09-09T09:54:32.275Z,16.47
2017-09-09T09:57:01.316Z,16.44
2017-09-09T09:59:31.165Z,16.39
2017-09-09T10:02:00.229Z,16.39
2017-09-09T10:04:29.318Z,16.39
2017-09-09T10:06:58.405Z,16.44
2017-09-09T10:09:27.449Z,16.56
2017-09-09T10:11:56.556Z,16.71
2017-09-09T10:14:25.608Z,16.83
2017-09-09T10:16:55.430Z,16.94
2017-09-09T10:19:25.240Z,16.98
2017-09-09T10:21:55.052Z,16.96
2017-09-09T10:24:24.876Z,16.90
2017-09-09T10:26:53.976Z,16.93
2017-09-09T10:29:23.813Z,16.95
2017-09-09T10:31:52.915Z,16.95
2017-09-09T10:34:22.232Z,17.02
2017-09-09T10:36:51.322Z,17.12
2017-09-09T10:39:20.711Z,17.18
2017-09-09T10:41:49.780Z,17.26
2017-09-09T10:44:19.606Z,17.20
2017-09-09T10:46:49.417Z,17.15
2017-09-09T10:49:18.891Z,17.14
2017-09-09T10:51:48.780Z,17.17
2017-09-09T10:54:17.864Z,17.27
2017-09-09T10:56:46.922Z,17.29
2017-09-09T10:59:16.756Z,17.34
2017-09-09T11:01:45.776Z,17.37
2017-09-09T11:04:14.865Z,17.46
2017-09-09T11:06:43.937Z,17.66
2017-09-09T11:09:12.984Z,17.78
2017-09-09T11:11:42.886Z,17.86
2017-09-09T11:14:11.923Z,17.86
2017-09-09T11:16:41.304Z,17.83
2017-09-09T11:19:10.367Z,17.77
2017-09-09T11:21:39.488Z,17.77
2017-09-09T11:24:09.353Z,17.73
2017-09-09T11:26:38.438Z,17.72
2017-09-09T11:29:07.580Z,17.76
2017-09-09T11:31:36.616Z,17.81
2017-09-09T11:34:05.664Z,17.84
2017-09-09T11:36:34.764Z,17.84
2017-09-09T11:39:04.154Z,17.98
2017-09-09T11:41:33.220Z,18.07
2017-09-09T11:44:02.267Z,18.24
2017-09-09T11:46:32.077Z,18.30
2017-09-09T11:49:01.154Z,18.43
2017-09-09T11:51:30.224Z,18.55
2017-09-09T11:53:59.300Z,18.74
2017-09-09T11:56:28.350Z,18.75
2017-09-09T11:58:57.408Z,18.77
2017-09-09T12:01:26.456Z,18.82
2017-09-09T12:03:56.295Z,18.78
2017-09-09T12:06:25.622Z,18.70
2017-09-09T12:08:54.676Z,18.61
2017-09-09T12:11:24.545Z,18.51
2017-09-09T12:13:53.584Z,18.46
2017-09-09T12:16:22.668Z,18.42
2017-09-09T12:18:52.503Z,18.32
2017-09-09T12:21:21.523Z,18.33
2017-09-09T12:23:50.578Z,18.32
2017-09-09T12:26:20.398Z,18.38
2017-09-09T12:28:49.477Z,18.45
2017-09-09T12:31:18.580Z,18.51
2017-09-09T12:33:47.615Z,18.47
2017-09-09T12:36:16.684Z,18.51
2017-09-09T12:38:45.736Z,18.59
2017-09-09T12:41:14.836Z,18.67
2017-09-09T12:43:43.849Z,18.75
2017-09-09T12:46:13.712Z,18.83
2017-09-09T12:48:42.817Z,18.84
2017-09-09T12:51:11.863Z,18.87
2017-09-09T12:53:40.920Z,18.83
2017-09-09T12:56:10.785Z,18.77
2017-09-09T12:58:39.899Z,18.75
2017-09-09T13:01:08.946Z,18.78
2017-09-09T13:03:38.772Z,18.77
2017-09-09T13:06:08.660Z,18.88
2017-09-09T13:08:38.514Z,19.03
2017-09-09T13:11:07.591Z,19.08
2017-09-09T13:13:36.604Z,19.07
2017-09-09T13:16:07.103Z,19.16
2017-09-09T13:18:36.133Z,19.21
2017-09-09T13:21:05.239Z,19.24
2017-09-09T13:23:34.298Z,19.31
2017-09-09T13:26:04.225Z,19.33
2017-09-09T13:28:34.039Z,19.41
2017-09-09T13:31:03.841Z,19.46
2017-09-09T13:33:33.678Z,19.45
2017-09-09T13:36:02.721Z,19.35
2017-09-09T13:38:31.797Z,19.27
2017-09-09T13:41:00.820Z,19.13
2017-09-09T13:43:29.873Z,19.09
2017-09-09T13:45:58.926Z,19.10
2017-09-09T13:48:28.787Z,19.12
2017-09-09T13:50:57.914Z,19.18
2017-09-09T13:53:26.990Z,19.15
2017-09-09T13:55:56.056Z,19.09
2017-09-09T13:58:25.451Z,18.98
2017-09-09T14:00:55.261Z,18.84
2017-09-09T14:03:24.340Z,18.74
2017-09-09T14:05:54.187Z,18.74
2017-09-09T14:08:23.365Z,18.81
2017-09-09T14:10:52.467Z,18.82
2017-09-09T14:13:21.567Z,18.88
2017-09-09T14:15:50.657Z,18.93
2017-09-09T14:18:19.709Z,18.92
2017-09-09T14:20:48.796Z,18.90
2017-09-09T14:23:17.848Z,18.87
2017-09-09T14:25:46.925Z,18.84
2017-09-09T14:28:16.975Z,18.74
2017-09-09T14:30:46.004Z,18.78
2017-09-09T14:33:15.107Z,18.80
2017-09-09T14:35:44.414Z,18.79
2017-09-09T14:38:14.259Z,18.78
2017-09-09T14:40:43.316Z,18.75
2017-09-09T14:43:12.411Z,18.61
2017-09-09T14:45:41.505Z,18.45
2017-09-09T14:48:10.589Z,18.21
2017-09-09T14:50:39.679Z,17.94
2017-09-09T14:53:08.906Z,17.83
2017-09-09T14:55:37.942Z,17.69
2017-09-09T14:58:07.086Z,17.48
2017-09-09T15:00:36.175Z,17.30
2017-09-09T15:03:09.352Z,17.16
2017-09-09T15:05:38.429Z,17.15
2017-09-09T15:08:07.493Z,17.15
2017-09-09T15:10:36.529Z,17.07
2017-09-09T15:13:05.658Z,17.02
2017-09-09T15:15:34.736Z,16.99
2017-09-09T15:18:03.793Z,17.02
2017-09-09T15:20:32.853Z,17.10
2017-09-09T15:23:02.792Z,16.99
2017-09-09T15:25:31.864Z,17.01
2017-09-09T15:28:01.053Z,16.95
2017-09-09T15:30:30.128Z,16.92
2017-09-09T15:32:59.151Z,16.90
2017-09-09T15:35:28.985Z,16.89
2017-09-09T15:37:58.040Z,16.89
2017-09-09T15:40:27.110Z,16.86
2017-09-09T15:42:56.285Z,16.87
2017-09-09T15:45:25.402Z,16.82
2017-09-09T15:47:54.490Z,16.87
2017-09-09T15:50:23.517Z,16.96
2017-09-09T15:52:52.598Z,17.11
2017-09-09T15:55:21.636Z,17.19
2017-09-09T15:57:50.704Z,17.21
2017-09-09T16:00:20.113Z,17.23
2017-09-09T16:02:49.152Z,17.30
2017-09-09T16:05:18.485Z,17.29
2017-09-09T16:07:48.294Z,17.32
2017-09-09T16:10:17.423Z,17.26
2017-09-09T16:12:47.271Z,17.27
2017-09-09T16:15:16.411Z,17.26
2017-09-09T16:17:45.496Z,17.25
2017-09-09T16:20:14.533Z,17.34
2017-09-09T16:22:43.596Z,17.42
2017-09-09T16:25:12.681Z,17.46
2017-09-09T16:27:41.732Z,17.53
2017-09-09T16:30:10.830Z,17.51
2017-09-09T16:32:42.421Z,17.53
2017-09-09T16:35:13.756Z,17.54
2017-09-09T16:37:42.795Z,17.51
2017-09-09T16:40:11.916Z,17.52
2017-09-09T16:42:41.753Z,17.47
2017-09-09T16:45:10.868Z,17.34
2017-09-09T16:47:39.905Z,17.31
2017-09-09T16:50:08.979Z,17.26
2017-09-09T16:52:38.100Z,17.24
2017-09-09T16:55:07.110Z,17.20
2017-09-09T16:57:36.200Z,17.16
2017-09-09T17:00:05.271Z,17.18
2017-09-09T17:02:34.316Z,17.15
2017-09-09T17:05:03.417Z,17.13
2017-09-09T17:07:32.551Z,17.11
2017-09-09T17:10:01.625Z,17.12
2017-09-09T17:12:31.478Z,17.03
2017-09-09T17:15:01.490Z,16.96
2017-09-09T17:17:31.617Z,16.94
2017-09-09T17:20:01.505Z,16.92
2017-09-09T17:22:30.574Z,16.92
2017-09-09T17:24:59.620Z,16.84
2017-09-09T17:27:29.469Z,16.87
2017-09-09T17:29:58.553Z,16.84
2017-09-09T17:32:27.628Z,16.83
2017-09-09T17:34:57.451Z,16.83
2017-09-09T17:37:27.630Z,16.80
2017-09-09T17:39:57.035Z,16.79
2017-09-09T17:42:26.130Z,16.75
2017-09-09T17:44:55.208Z,16.70
2017-09-09T17:47:24.324Z,16.66
2017-09-09T17:49:53.387Z,16.57
2017-09-09T17:52:22.428Z,16.54
2017-09-09T17:54:52.293Z,16.47
2017-09-09T17:57:21.349Z,16.39
2017-09-09T17:59:51.248Z,16.32
2017-09-09T18:02:20.555Z,16.31
2017-09-09T18:04:49.663Z,16.25
2017-09-09T18:07:18.717Z,16.22
2017-09-09T18:09:47.772Z,16.19
2017-09-09T18:12:16.931Z,16.13
2017-09-09T18:14:45.993Z,16.08
2017-09-09T18:17:15.053Z,16.05
2017-09-09T18:19:44.110Z,16.00
2017-09-09T18:22:13.432Z,15.96
2017-09-09T18:24:43.256Z,15.97
2017-09-09T18:27:12.825Z,15.92
2017-09-09T18:29:42.008Z,15.91
2017-09-09T18:32:11.306Z,15.88
2017-09-09T18:34:40.340Z,15.88
2017-09-09T18:37:09.433Z,15.85
2017-09-09T18:39:38.542Z,15.81
2017-09-09T18:42:07.635Z,15.81
2017-09-09T18:44:37.547Z,15.78
2017-09-09T18:47:08.269Z,15.74
2017-09-09T18:49:38.104Z,15.72
2017-09-09T18:52:07.176Z,15.71
2017-09-09T18:54:36.277Z,15.72
2017-09-09T18:57:05.305Z,15.68
2017-09-09T18:59:34.388Z,15.66
2017-09-09T19:02:03.548Z,15.63
2017-09-09T19:04:32.607Z,15.61
2017-09-09T19:07:01.713Z,15.57
2017-09-09T19:09:30.817Z,15.56
2017-09-09T19:11:59.895Z,15.53
2017-09-09T19:14:28.957Z,15.50
2017-09-09T19:16:58.125Z,15.47
2017-09-09T19:19:28.078Z,15.43
2017-09-09T19:21:57.223Z,15.40
2017-09-09T19:24:26.236Z,15.35
2017-09-09T19:26:56.085Z,15.31
2017-09-09T19:29:25.166Z,15.31
2017-09-09T19:31:54.992Z,15.30
2017-09-09T19:34:24.131Z,15.26
2017-09-09T19:36:53.178Z,15.22
2017-09-09T19:39:23.032Z,15.15
2017-09-09T19:41:52.916Z,15.10
2017-09-09T19:44:21.977Z,15.02
2017-09-09T19:46:52.253Z,14.93
2017-09-09T19:49:21.343Z,14.87
2017-09-09T19:51:50.660Z,14.81
2017-09-09T19:54:19.709Z,14.77
2017-09-09T19:56:49.864Z,14.74
2017-09-09T19:59:18.949Z,14.75
2017-09-09T20:01:48.061Z,14.70
2017-09-09T20:04:17.307Z,14.71
2017-09-09T20:06:47.276Z,14.72
2017-09-09T20:09:16.364Z,14.71
2017-09-09T20:11:45.436Z,14.71
2017-09-09T20:14:14.519Z,14.73
2017-09-09T20:16:44.459Z,14.71
2017-09-09T20:19:13.684Z,14.68
2017-09-09T20:21:42.727Z,14.72
2017-09-09T20:24:11.808Z,14.73
2017-09-09T20:26:41.643Z,14.68
2017-09-09T20:29:10.726Z,14.68
2017-09-09T20:31:40.548Z,14.70
2017-09-09T20:34:09.595Z,14.72
2017-09-09T20:36:38.657Z,14.73
2017-09-09T20:39:07.757Z,14.75
2017-09-09T20:41:36.803Z,14.78
2017-09-09T20:44:06.683Z,14.82
2017-09-09T20:46:35.827Z,14.80
2017-09-09T20:49:04.885Z,14.80
2017-09-09T20:51:33.984Z,14.75
2017-09-09T20:54:03.082Z,14.75
2017-09-09T20:56:32.142Z,14.68
2017-09-09T20:59:01.250Z,14.71
2017-09-09T21:01:30.308Z,14.69
2017-09-09T21:03:59.344Z,14.63
2017-09-09T21:06:28.437Z,14.63
2017-09-09T21:08:57.493Z,14.60
2017-09-09T21:11:27.348Z,14.55
2017-09-09T21:13:56.621Z,14.55
2017-09-09T21:16:25.689Z,14.53
2017-09-09T21:18:55.504Z,14.50
2017-09-09T21:21:25.344Z,14.46
2017-09-09T21:23:54.428Z,14.40
2017-09-09T21:26:23.493Z,14.35
2017-09-09T21:28:52.566Z,14.35
2017-09-09T21:31:21.640Z,14.29
2017-09-09T21:33:50.764Z,14.30
2017-09-09T21:36:19.829Z,14.28
2017-09-09T21:38:48.928Z,14.24
2017-09-09T21:41:17.947Z,14.24
2017-09-09T21:43:47.022Z,14.20
2017-09-09T21:46:16.371Z,14.19
2017-09-09T21:48:45.411Z,14.18
2017-09-09T21:51:14.478Z,14.18
2017-09-09T21:53:43.552Z,14.14
2017-09-09T21:56:12.603Z,14.14
2017-09-09T21:58:41.637Z,14.16
2017-09-09T22:01:11.499Z,14.12
2017-09-09T22:03:40.572Z,14.12
2017-09-09T22:06:10.404Z,14.06
2017-09-09T22:08:39.456Z,14.06
2017-09-09T22:11:09.277Z,14.00
2017-09-09T22:13:38.333Z,13.99
2017-09-09T22:16:07.457Z,14.00
2017-09-09T22:18:36.552Z,13.97
2017-09-09T22:21:05.588Z,13.93
2017-09-09T22:23:34.648Z,13.88
2017-09-09T22:26:04.024Z,13.87
2017-09-09T22:28:33.152Z,13.78
2017-09-09T22:31:02.999Z,13.69
2017-09-09T22:33:32.087Z,13.69
2017-09-09T22:36:01.896Z,13.72
2017-09-09T22:38:30.937Z,13.75
2017-09-09T22:41:00.063Z,13.75
2017-09-09T22:43:29.067Z,13.75
2017-09-09T22:45:58.117Z,13.73
2017-09-09T22:48:27.219Z,13.69
2017-09-09T22:50:56.266Z,13.63
2017-09-09T22:53:25.335Z,13.62
2017-09-09T22:55:55.157Z,13.61
2017-09-09T22:58:24.237Z,13.57
2017-09-09T23:00:53.259Z,13.57
2017-09-09T23:03:22.347Z,13.54
2017-09-09T23:05:52.180Z,13.51
2017-09-09T23:08:21.404Z,13.50
2017-09-09T23:10:50.471Z,13.52
2017-09-09T23:13:19.520Z,13.54
2017-09-09T23:15:48.581Z,13.52
2017-09-09T23:18:17.643Z,13.52
2017-09-09T23:20:46.713Z,13.52
2017-09-09T23:23:16.579Z,13.52
2017-09-09T23:25:45.602Z,13.53
2017-09-09T23:28:14.771Z,13.55
2017-09-09T23:30:43.826Z,13.52
2017-09-09T23:33:13.638Z,13.50
2017-09-09T23:35:43.464Z,13.48
2017-09-09T23:38:12.559Z,13.50
2017-09-09T23:40:41.611Z,13.47
2017-09-09T23:43:11.031Z,13.47
2017-09-09T23:45:40.105Z,13.46
2017-09-09T23:48:09.157Z,13.46
2017-09-09T23:50:38.224Z,13.48
2017-09-09T23:53:08.053Z,13.46
2017-09-09T23:55:37.138Z,13.41
2017-09-09T23:58:06.980Z,13.41
